Latest Weather Observations for Falls Creek

IDV60801

Issued at 12:02 pm EST Thursday 30 July 2015 (issued every 30 minutes, with the page automatically refreshed every 10 minutes)

About weather observations | Map of weather stations | Latest weather observations for VIC | Other Formats
Station Details ID: 083084 Name: FALLS CREEK Lat: -36.87 Lon: 147.28 Height: 1765.0 m
Data from the previous 72 hours. | See also: Recent months at Falls Creek
Date/Time
EST
Temp
°C
App
Temp
°C
Dew
Point
Rel
Hum
%
Delta-T
°C
Wind Press
QNH
hPa
Press
MSL
hPa
Rain
since 9 am
mm
Dir
 
Spd
km/h
Gust
km/h
Spd
kts
Gust
kts
30/12:00pm -2.5 -10.5 -2.6 99 -0.1 NNW 30 46 16 25 1018.9 1021.7 0.0
30/11:30am -2.7 -11.3 -2.8 99 -0.1 NNW 33 44 18 24 1019.8 1022.6 0.0
30/11:00am -2.9 -12.3 -3.0 99 -0.1 NNW 37 50 20 27 1019.9 1022.7 0.0
30/10:57am -2.9 -12.3 -3.0 99 -0.1 NNW 37 56 20 30 1019.9 1022.7 0.0
30/10:30am -3.0 -12.4 -3.1 99 -0.1 NW 37 50 20 27 1020.0 1022.9 0.0
30/10:00am -3.2 -13.4 -3.3 99 -0.1 NW 41 52 22 28 1019.6 1022.5 0.0
30/09:30am -3.4 -13.3 -3.5 99 -0.1 NW 39 50 21 27 1019.6 1022.5 0.0
30/09:00am -3.5 -12.6 -3.6 99 -0.1 NW 35 44 19 24 1020.0 1022.9 0.0
30/08:30am -3.7 -12.8 -3.8 99 -0.1 NW 35 43 19 23 1020.1 1023.0 0.0
30/08:00am -3.6 -13.5 -3.7 99 -0.1 NW 39 46 21 25 1020.5 1023.4 0.0
30/07:30am -3.6 -13.1 -3.7 99 -0.1 NW 37 48 20 26 1020.2 1023.1 0.0
30/07:00am -3.6 -12.7 -3.7 99 -0.1 NW 35 48 19 26 1020.7 1023.6 0.0
30/06:30am -3.6 -13.5 -3.7 99 -0.1 NW 39 48 21 26 1020.7 1023.6 0.0
30/06:00am -3.7 -12.4 -3.8 99 -0.1 NW 33 41 18 22 1020.8 1023.7 0.0
30/05:30am -3.9 -11.7 -4.0 99 -0.1 NW 28 35 15 19 1021.2 1024.1 0.0
30/05:00am -3.8 -11.2 -3.9 99 -0.1 NW 26 32 14 17 1021.3 1024.2 0.0
30/04:30am -3.8 -12.0 -3.9 99 -0.1 NW 30 39 16 21 1021.4 1024.4 0.0
30/04:00am -3.7 -11.1 -3.8 99 -0.1 NW 26 35 14 19 1021.5 1024.5 0.0
30/03:30am -3.6 -12.1 -3.7 99 -0.1 NW 32 44 17 24 1022.0 1025.0 0.0
30/03:00am -3.7 -11.9 -3.8 99 -0.1 NW 30 41 16 22 1022.3 1025.2 0.0
30/02:30am -3.7 -11.9 -3.8 99 -0.1 NW 30 39 16 21 1022.7 1025.7 0.0
30/02:00am -3.7 -11.9 -3.8 99 -0.1 NW 30 39 16 21 1023.0 1026.0 0.0
30/01:30am -3.3 -12.4 -3.4 99 -0.1 NW 35 46 19 25 1023.3 1026.3 0.0
30/01:00am -3.4 -11.2 -3.5 99 -0.1 NW 28 37 15 20 1023.4 1026.5 0.0
30/12:30am -3.4 -12.5 -3.5 99 -0.1 NW 35 46 19 25 1024.0 1027.1 0.0
30/12:00am -3.3 -13.1 -3.4 99 -0.1 NNW 39 54 21 29 1023.8 1026.8 0.0
 
Date/Time
EST
Temp
°C
App
Temp
°C
Dew
Point
Rel
Hum
%
Delta-T
°C
Wind Press
QNH
hPa
Press
MSL
hPa
Rain
since 9 am
mm
Dir
 
Spd
km/h
Gust
km/h
Spd
kts
Gust
kts
29/11:30pm -3.1 -11.6 -3.2 99 -0.1 NNW 32 41 17 22 1024.0 1027.1 0.0
29/11:00pm -3.0 -11.5 -3.1 99 -0.1 NNW 32 44 17 24 1024.6 1027.7 0.0
29/10:30pm -2.9 -11.9 -3.0 99 -0.1 NW 35 46 19 25 1024.6 1027.7 0.0
29/10:00pm -3.0 -12.0 -3.1 99 -0.1 NNW 35 48 19 26 1024.5 1027.6 0.0
29/09:30pm -2.9 -11.6 -3.0 99 -0.1 NNW 33 46 18 25 1024.6 1027.7 0.0
29/09:00pm -2.7 -11.7 -2.8 99 -0.1 NNW 35 48 19 26 1025.2 1028.3 0.0
29/08:30pm -2.5 -11.5 -2.6 99 -0.1 NNW 35 46 19 25 1025.2 1028.3 0.0
29/08:00pm -2.5 -10.1 -2.5 100 0.0 NNW 28 39 15 21 1025.2 1028.3 0.0
29/07:30pm -2.7 -9.6 -2.8 99 -0.1 NNW 24 33 13 18 1025.7 1028.8 0.0
29/07:00pm -2.6 -9.5 -2.7 99 -0.1 NNW 24 32 13 17 1025.9 1029.1 0.0
29/06:30pm -2.4 -8.9 -2.5 99 -0.1 NNW 22 28 12 15 1025.7 1028.8 0.0
29/06:00pm -2.3 -9.2 -2.3 100 0.0 NNW 24 35 13 19 1025.7 1028.8 0.0
29/05:30pm -2.1 -9.7 -2.1 100 0.0 NNW 28 41 15 22 1025.8 1029.0 0.0
29/05:00pm -1.9 -9.5 -1.9 100 0.0 NNW 28 37 15 20 1025.9 1029.1 0.0
29/04:30pm -1.5 -8.6 -1.5 100 0.0 NNW 26 35 14 19 1026.3 1029.4 0.0
29/04:00pm -1.2 -7.2 -1.2 100 0.0 NNW 20 30 11 16 1026.7 1029.8 0.0
29/03:30pm -1.1 -6.8 -1.1 100 0.0 NNW 19 26 10 14 1027.1 1030.3 0.0
29/03:00pm -1.1 -7.4 -1.1 100 0.0 NNW 22 28 12 15 1026.8 1029.9 0.0
29/02:30pm -0.7 -7.3 -0.7 100 0.0 NNW 24 35 13 19 1027.1 1030.3 0.0
29/02:00pm -0.5 -7.9 -0.5 100 0.0 NNW 28 37 15 20 1027.6 1030.8 0.0
29/01:30pm -0.4 -8.1 -0.4 100 0.0 NNW 30 41 16 22 1028.0 1031.2 0.0
29/01:00pm -0.3 -6.9 -0.3 100 0.0 NNW 24 37 13 20 1028.2 1031.4 0.0
29/12:30pm -0.3 -7.6 -0.3 100 0.0 NNW 28 43 15 23 1028.7 1031.9 0.0
29/12:00pm -0.2 -7.9 -0.2 100 0.0 NNW 30 39 16 21 1029.1 1032.4 0.0
29/11:30am -0.4 -7.8 -0.4 100 0.0 NNW 28 35 15 19 1029.9 1033.2 0.0
29/11:00am -0.5 -7.9 -0.6 99 0.0 NNW 28 39 15 21 1030.1 1033.4 0.0
29/10:30am -0.7 -8.1 -0.8 99 0.0 NNW 28 35 15 19 1030.5 1033.8 0.0
29/10:00am -0.9 -7.2 -0.9 100 0.0 NNW 22 28 12 15 1030.6 1033.9 0.0
29/09:30am -0.6 -7.2 -0.7 99 0.0 NNW 24 28 13 15 1030.6 1033.9 0.0
29/09:00am -1.1 -6.9 -1.2 99 0.0 NNW 19 24 10 13 1030.6 1033.9 0.0
29/08:30am -1.6 -7.4 -1.7 99 0.0 NNW 19 24 10 13 1030.6 1033.9 0.0
29/08:00am -2.0 -7.5 -2.1 99 -0.1 NNW 17 20 9 11 1030.7 1034.0 0.0
29/07:30am -2.3 -7.8 -2.4 99 -0.1 NW 17 20 9 11 1030.6 1033.9 0.0
29/07:00am -2.3 -7.8 -2.4 99 -0.1 NNW 17 20 9 11 1030.2 1033.5 0.0
29/06:30am -2.2 -7.7 -2.3 99 -0.1 NNW 17 22 9 12 1030.0 1033.3 0.0
29/06:00am -2.5 -8.4 -2.6 99 -0.1 NW 19 22 10 12 1029.7 1033.1 0.0
29/05:30am -2.5 -7.7 -2.6 99 -0.1 NW 15 19 8 10 1029.5 1032.8 0.0
29/05:00am -2.4 -5.9 -2.5 99 -0.1 NNE 6 11 3 6 1029.6 1032.9 0.0
29/04:30am -1.8 -5.8 -1.9 99 -0.1 NW 9 13 5 7 1029.7 1033.1 0.0
29/04:00am -1.5 -4.8 -1.5 100 0.0 NNW 6 7 3 4 1029.5 1032.8 0.0
29/03:30am -1.4 -4.7 -1.4 100 0.0 NE 6 7 3 4 1029.4 1032.7 0.0
29/03:00am -2.6 -6.1 -2.7 99 -0.1 N 6 6 3 3 1029.6 1032.9 0.0
29/02:30am -3.0 -6.5 -3.1 99 -0.1 NNW 6 7 3 4 1030.1 1033.4 0.0
29/02:00am -2.9 -6.4 -3.0 99 -0.1 NW 6 11 3 6 1030.1 1033.4 0.0
29/01:30am -2.7 -6.2 -2.8 99 -0.1 NNW 6 7 3 4 1030.3 1033.7 0.0
29/01:00am -2.8 -6.5 -2.9 99 -0.1 NNW 7 13 4 7 1030.2 1033.5 0.0
29/12:30am -2.8 -6.9 -2.9 99 -0.1 NNW 9 11 5 6 1030.5 1033.8 0.0
29/12:00am -2.7 -7.1 -2.8 99 -0.1 NNW 11 15 6 8 1030.6 1033.9 0.0
 
Date/Time
EST
Temp
°C
App
Temp
°C
Dew
Point
Rel
Hum
%
Delta-T
°C
Wind Press
QNH
hPa
Press
MSL
hPa
Rain
since 9 am
mm
Dir
 
Spd
km/h
Gust
km/h
Spd
kts
Gust
kts
28/11:30pm -2.8 -6.5 -2.9 99 -0.1 N 7 9 4 5 1030.8 1034.2 0.0
28/11:00pm -3.1 -6.3 -3.2 99 -0.1 NNW 4 7 2 4 1030.7 1034.0 0.0
28/10:30pm -3.1 -6.8 -3.2 99 -0.1 NNW 7 9 4 5 1030.6 1033.9 0.0
28/10:00pm -3.1 -5.5 -3.2 99 -0.1 CALM 0 4 0 2 1030.8 1034.2 0.0
28/09:30pm -2.9 -6.4 -3.0 99 -0.1 WNW 6 7 3 4 1030.9 1034.3 0.0
28/09:00pm -2.4 -5.1 -2.4 100 0.0 WNW 2 6 1 3 1031.0 1034.4 0.0
28/08:30pm -2.2 -5.8 -2.2 100 0.0 W 7 9 4 5 1030.9 1034.3 0.0
28/08:00pm -2.1 -6.8 -2.1 100 0.0 SW 13 15 7 8 1030.8 1034.2 0.0
28/07:30pm -1.9 -5.5 -1.9 100 0.0 SW 7 11 4 6 1030.9 1034.3 0.0
28/07:00pm -2.0 -6.0 -2.0 100 0.0 SW 9 13 5 7 1030.7 1034.0 0.0
28/06:30pm -1.8 -6.1 -1.8 100 0.0 WSW 11 15 6 8 1030.3 1033.7 0.0
28/06:00pm -1.9 -5.5 -1.9 100 0.0 SW 7 11 4 6 1030.2 1033.5 0.0
28/05:30pm -2.2 -6.6 -2.2 100 0.0 SW 11 15 6 8 1030.0 1033.3 0.0
28/05:00pm -1.8 -6.1 -1.8 100 0.0 SW 11 17 6 9 1030.0 1033.3 0.0
28/04:30pm -1.7 -5.6 -1.7 100 0.0 WSW 9 11 5 6 1030.0 1033.3 0.0
28/04:00pm -1.3 -5.2 -1.3 100 0.0 WSW 9 11 5 6 1030.0 1033.3 0.0
28/03:30pm -1.4 -5.3 -1.4 100 0.0 SW 9 15 5 8 1030.0 1033.3 0.0
28/03:00pm -1.2 -5.1 -1.2 100 0.0 SW 9 15 5 8 1029.7 1033.1 0.0
28/02:30pm -1.2 -5.8 -1.2 100 0.0 SW 13 15 7 8 1029.7 1033.1 0.0
28/02:00pm -1.2 -5.1 -1.2 100 0.0 SW 9 15 5 8 1029.6 1032.9 0.0
28/01:30pm -0.8 -4.6 -0.8 100 0.0 WSW 9 15 5 8 1029.7 1033.1 0.0
28/01:00pm -1.0 -4.3 -1.0 100 0.0 WSW 6 11 3 6 1030.0 1033.3 0.0
28/12:30pm -1.3 -5.9 -1.3 100 0.0 SW 13 19 7 10 1030.3 1033.7 0.0
28/12:00pm -1.4 -6.4 -1.4 100 0.0 SW 15 20 8 11 1030.8 1034.2 0.0
28/11:30am -1.3 -6.3 -1.3 100 0.0 SW 15 20 8 11 1030.9 1034.3 0.0
28/11:00am -1.6 -8.0 -1.6 100 0.0 SSW 22 28 12 15 1031.0 1034.4 0.0
28/10:30am -1.5 -7.5 -1.5 100 0.0 SW 20 30 11 16 1030.9 1034.3 0.0
28/10:00am -1.5 -7.5 -1.5 100 0.0 SSW 20 24 11 13 1030.9 1034.3 0.0
28/09:30am -1.5 -7.9 -1.5 100 0.0 SSW 22 28 12 15 1030.7 1034.0 0.0
28/09:00am -1.8 -7.3 -1.8 100 0.0 SSW 17 22 9 12 1030.5 1033.8 0.2
28/08:30am -1.9 -7.4 -1.9 100 0.0 SSW 17 20 9 11 1030.0 1033.3 0.2
28/08:00am -1.9 -9.5 -1.9 100 0.0 SSW 28 35 15 19 1029.7 1033.1 0.2
28/07:30am -1.9 -10.4 -1.9 100 0.0 SSW 33 43 18 23 1029.5 1032.8 0.2
28/07:00am -1.8 -9.7 -1.8 100 0.0 SSW 30 37 16 20 1028.7 1031.9 0.2
28/06:30am -2.0 -10.3 -2.0 100 0.0 SSW 32 41 17 22 1028.2 1031.4 0.2
28/06:00am -1.9 -9.8 -1.9 100 0.0 SW 30 37 16 20 1028.0 1031.2 0.2
28/05:30am -1.9 -10.2 -1.9 100 0.0 SSW 32 39 17 21 1027.7 1030.9 0.2
28/05:00am -2.1 -10.6 -2.1 100 0.0 SSW 33 41 18 22 1027.5 1030.7 0.2
28/04:30am -2.3 -11.6 -2.3 100 0.0 SW 37 46 20 25 1026.9 1030.1 0.2
28/04:00am -2.6 -13.3 -2.7 99 -0.1 SW 44 56 24 30 1026.4 1029.6 0.2
28/03:30am -2.7 -13.2 -2.8 99 -0.1 SW 43 48 23 26 1026.4 1029.6 0.2
28/03:00am -2.7 -12.8 -2.8 99 -0.1 SSW 41 50 22 27 1026.4 1029.6 0.2
28/02:30am -3.2 -12.6 -3.3 99 -0.1 SW 37 44 20 24 1026.7 1029.8 0.2
28/02:00am -3.3 -11.4 -3.4 99 -0.1 SW 30 37 16 20 1026.5 1029.7 0.2
28/01:30am -3.0 -11.1 -3.1 99 -0.1 SSW 30 43 16 23 1026.5 1029.7 0.2
28/01:00am -3.3 -9.9 -3.4 99 -0.1 SW 22 32 12 17 1026.5 1029.7 0.2
28/12:30am -3.4 -11.2 -3.5 99 -0.1 SW 28 35 15 19 1026.2 1029.3 0.2
28/12:00am -3.4 -10.4 -3.5 99 -0.1 SW 24 30 13 16 1026.3 1029.4 0.2
 
Date/Time
EST
Temp
°C
App
Temp
°C
Dew
Point
Rel
Hum
%
Delta-T
°C
Wind Press
QNH
hPa
Press
MSL
hPa
Rain
since 9 am
mm
Dir
 
Spd
km/h
Gust
km/h
Spd
kts
Gust
kts
27/11:30pm -3.5 -11.7 -3.6 99 -0.1 SW 30 41 16 22 1026.3 1029.4 0.2
27/11:00pm -3.4 -13.6 -3.5 99 -0.1 SW 41 50 22 27 1025.7 1028.8 0.2
27/10:30pm -3.6 -14.4 -3.7 99 -0.1 SW 44 54 24 29 1025.5 1028.6 0.2
27/10:00pm -3.5 -13.0 -3.6 99 -0.1 WSW 37 56 20 30 1025.5 1028.6 0.2
27/09:59pm -3.5 -12.6 -3.6 99 -0.1 WSW 35 56 19 30 1025.6 1028.7 0.2
27/09:30pm -3.5 -12.6 -3.6 99 -0.1 SW 35 50 19 27 1025.5 1028.6 0.2
27/09:00pm -3.6 -13.1 -3.7 99 -0.1 SW 37 50 20 27 1025.9 1029.1 0.2
27/08:49pm -3.3 -11.1 -3.4 99 -0.1 WSW 28 44 15 24 1025.9 1029.1 0.2
27/08:30pm -3.3 -9.3 -3.4 99 -0.1 WSW 19 24 10 13 1025.9 1029.1 0.2
27/08:00pm -3.4 -10.8 -3.5 99 -0.1 SW 26 33 14 18 1025.8 1029.0 0.2
27/07:30pm -3.4 -10.4 -3.5 99 -0.1 WSW 24 32 13 17 1025.7 1028.8 0.2
27/07:00pm -3.0 -9.0 -3.1 99 -0.1 WSW 19 30 10 16 1025.7 1028.8 0.2
27/06:30pm -3.0 -6.7 -3.1 99 -0.1 NW 7 9 4 5 1025.3 1028.5 0.2
27/06:00pm -3.1 -9.7 -3.2 99 -0.1 WSW 22 35 12 19 1024.7 1027.8 0.2
27/05:30pm -3.1 -8.4 -3.2 99 -0.1 W 15 26 8 14 1024.4 1027.5 0.2
27/05:00pm -3.0 -7.9 -3.1 99 -0.1 W 13 20 7 11 1023.9 1027.0 0.2
27/04:40pm -3.2 -10.9 -3.3 99 -0.1 WSW 28 46 15 25 1023.8 1026.8 0.2
27/04:30pm -3.0 -10.0 -3.1 99 -0.1 WSW 24 35 13 19 1023.9 1027.0 0.2
27/04:00pm -2.9 -7.8 -3.0 99 -0.1 WNW 13 19 7 10 1023.4 1026.5 0.2
27/03:30pm -2.9 -8.9 -3.0 99 -0.1 WSW 19 32 10 17 1023.4 1026.5 0.2
27/03:00pm -2.8 -8.4 -2.9 99 -0.1 WSW 17 24 9 13 1023.2 1026.2 0.2
27/02:30pm -2.6 -8.2 -2.7 99 -0.1 WSW 17 22 9 12 1023.0 1026.0 0.2
27/02:00pm -2.8 -8.4 -2.9 99 -0.1 WSW 17 26 9 14 1022.7 1025.7 0.2
27/01:30pm -3.1 -10.1 -3.2 99 -0.1 SW 24 30 13 16 1022.5 1025.5 0.2
27/01:00pm -3.0 -10.0 -3.1 99 -0.1 SW 24 37 13 20 1022.7 1025.7 0.2
27/12:30pm -3.0 -10.7 -3.1 99 -0.1 SW 28 35 15 19 1023.0 1026.0 0.2

Other Formats:

Comma delimited format used in spreadsheet applications
http://www.bom.gov.au/fwo/IDV60801/IDV60801.94903.axf

JavaScript Object Notation format (JSON) in row-major order
http://www.bom.gov.au/fwo/IDV60801/IDV60801.94903.json